Atar, Atar International Airport (GQPA)

NameAtar International Airport
CityAtar
CountryMauritania
ICAOGQPA
IATAATR
Altitude231 m
CoordinatesGoogle Map
Live Air TrafficLiveATC.net
METARGQPA 140900Z VRB02KT 5000 BLDU NSC 16/M08 Q1022
2019-01-14 09:00:00 Wind: North (0°) 1.03 m/s - Visibility: 5000 m - Weather: Blowing Widespread dust - Temperature: 16 °C - Dew point: -8 °C - Humidity: 18.6% - Pressure: 1022 hPa
Statistics

The table below shows the detailed information of all flights to/from Atar, Atar International Airport (GQPA).